Contact Us:
Email: info@sawbill.com
Phone: (218)663-7150
Fax: (218)663-7980
Mail: 4620 Sawbill Trail
Box 2129
Tofte, MN 55615


Powered by
Movable Type 3.15
 
Sawbill Weather History Archives: March 2007
Current Sawbill Weather History | « February 2007 | April 2007 »


Date

High
Temperature

Low
Temperature

Barometric
Pressure

Relative
Humidity 7AM

9 AM
Temperature

Moisture

Snow

3/31/07 37 33 30.01 86% 35 0
3/30/07 41 30 30.34 82% 33 0
3/29/07 46 31 30.51 58% 32 Trace Trace
3/28/07 40 34 30.34 56% 36 0
3/27/07 57 33 30.14 54% 34 0
3/26/07 66 33 30.14 82% 34 0
3/25/07 58 35 29.76 90% 44 .5"
3/24/07 58 35 29.69 88% 41 0
3/23/07 57 30 30.11 70% 35 0
3/22/07 41 27 30.00 76% 5 0
3/21/07 39 28 30.02 69% 28 Trace
3/20/07 35 8 29.56 70% 35 0
3/19/07 27 -4 29.10 68% 0 0
3/18/07 39 10 29.68 74% 26 .51" 4.5"
3/17/07 40 8 30.10 65% 10 0
3/16/07 52 3 30.19 71% 6 0
3/15/07 20 -10 30.15 68% -8 .03" .5"
3/14/07 55 2 29.76 47% 5 0
3/12/07 55 31 30.10 78% 40 0
3/10/07 46 23 29.78 64% 34 0
3/9/07 42 26 30.12 70% 26 0
3/8/07 29 14 29.94 84% 29 0
3/7/07 33 -3 30.01 54% 14 0
3/6/07 16 -3 30.10 54% -3 0
3/5/07 27 -10 29.86 43% 1 0
3/4/07 32 -8 29.75 45% -8 0
3/3/07 31 7 29.75 57% 14 0
3/2/07 33 7 29.51 64% 7 .18" 4.5"
3/1/07 29 15 30.04 66% 16 .23" 2"
 


Home I Trip Planning I Rentals and Outfitting I Reservations I Campgrounds I Sawbill Store I Sawbill News I Contact

© 1997 - 2017, Sawbill Canoe Outfitters, Inc. I Privacy Policy